Time;durP1;ratioP1;P1;durP2;ratioP2;P2;SDS_P1;SDS_P2;PMS_P1;PMS_P2;Temp;Humidity;BMP_temperature;BMP_pressure;BME280_temperature;BME280_humidity;BME280_pressure;Samples;Min_cycle;Max_cycle;Signal;HPM_P1;HPM_P2
2021/07/08 03:12:40;;;;;;;5.80;3.35;;;;;;;25.02;52.60;100480.00;5300917;26;21595;-89
2021/07/08 03:15:10;;;;;;;5.78;3.33;;;;;;;25.08;52.02;100476.91;5294110;27;187917;-90
2021/07/08 03:17:38;;;;;;;7.62;3.37;;;;;;;24.77;54.71;100483.41;5301187;27;20060;-90
2021/07/08 03:20:12;;;;;;;7.50;3.92;;;;;;;25.11;53.25;100487.47;5302355;27;20056;-90
2021/07/08 03:22:44;;;;;;;8.50;3.62;;;;;;;25.09;53.00;100488.53;5303073;27;20088;-90
2021/07/08 04:22:51;;;;;;;4.28;2.65;;;;;;;31.07;40.35;100529.03;5311507;26;20410;-90
2021/07/08 04:25:20;;;;;;;4.78;2.92;;;;;;;31.48;39.74;100521.72;5302984;27;20057;-90
2021/07/08 04:27:47;;;;;;;3.62;2.58;;;;;;;31.76;38.87;100521.87;5326459;27;20691;-90
2021/07/08 04:30:21;;;;;;;3.97;2.33;;;;;;;31.31;38.95;100511.50;5328780;27;20073;-91
2021/07/08 04:32:49;;;;;;;5.53;2.58;;;;;;;31.45;38.29;100508.44;5313399;27;20455;-90
2021/07/08 04:35:28;;;;;;;3.55;2.60;;;;;;;30.57;40.14;100528.06;5332351;27;20027;-90
2021/07/08 04:37:58;;;;;;;3.87;2.45;;;;;;;31.44;39.26;100536.56;5298657;27;20099;-91
2021/07/08 04:40:29;;;;;;;4.07;2.65;;;;;;;31.96;38.29;100533.62;5333318;27;20068;-91
2021/07/08 04:42:59;;;;;;;6.53;2.03;;;;;;;32.39;36.67;100522.28;5332237;27;20121;-91
2021/07/08 04:45:29;;;;;;;6.62;2.45;;;;;;;32.18;37.11;100530.62;5323941;27;20044;-91
2021/07/08 04:47:56;;;;;;;5.28;2.80;;;;;;;32.27;37.47;100524.28;5300719;27;20072;-90
2021/07/08 04:50:24;;;;;;;4.87;2.35;;;;;;;32.35;37.58;100529.00;5300441;27;20065;-91
2021/07/08 04:52:52;;;;;;;2.47;2.03;;;;;;;32.85;36.28;100533.28;5300379;27;20079;-91
2021/07/08 04:55:23;;;;;;;5.15;2.83;;;;;;;32.76;36.89;100524.16;5300730;27;20399;-91
2021/07/08 04:57:51;;;;;;;3.10;2.47;;;;;;;32.88;35.85;100519.38;5319852;27;20083;-90
2021/07/08 14:32:44;;;;;;;9.43;8.43;;;;;;;44.37;16.60;100253.56;5325894;26;20069;-89
2021/07/08 14:35:11;;;;;;;16.27;10.30;;;;;;;44.77;16.32;100258.53;5328770;27;20033;-89
2021/07/08 14:37:38;;;;;;;10.23;8.50;;;;;;;44.44;16.67;100262.59;5330186;27;20029;-89
2021/07/08 14:40:06;;;;;;;9.73;8.82;;;;;;;44.82;17.08;100261.41;5306619;27;20033;-88
2021/07/08 14:42:48;;;;;;;12.23;9.20;;;;;;;44.99;17.63;100255.19;5302458;27;20065;-90
2021/07/08 14:45:16;;;;;;;11.15;8.50;;;;;;;45.23;16.94;100251.38;5303337;27;20069;-89
2021/07/08 14:47:46;;;;;;;27.05;10.50;;;;;;;45.63;16.50;100247.06;5304303;27;20073;-90
2021/07/08 14:50:17;;;;;;;10.93;8.05;;;;;;;45.70;16.80;100250.53;5324297;27;20052;-90
2021/07/08 14:52:45;;;;;;;10.43;9.02;;;;;;;45.93;16.48;100246.87;5305590;27;20064;-90
2021/07/08 14:55:15;;;;;;;11.43;8.23;;;;;;;45.71;16.05;100250.28;5324656;27;20120;-89
2021/07/08 14:57:42;;;;;;;8.90;8.00;;;;;;;45.91;15.61;100252.66;5302635;27;20088;-89
2021/07/08 15:00:10;;;;;;;9.02;7.53;;;;;;;45.79;15.99;100237.94;5301223;27;20116;-88
2021/07/08 15:02:41;;;;;;;10.52;8.15;;;;;;;45.85;16.34;100233.34;5301437;27;20060;-89
2021/07/08 15:05:09;;;;;;;9.35;8.13;;;;;;;46.10;15.94;100235.84;5301684;27;20086;-90
2021/07/08 15:07:36;;;;;;;13.73;7.57;;;;;;;45.94;16.03;100232.75;5301177;27;20549;-88
2021/07/08 15:10:10;;;;;;;9.02;8.13;;;;;;;45.88;15.35;100235.62;5301442;27;20053;-90
2021/07/08 15:12:38;;;;;;;9.70;7.87;;;;;;;45.82;15.30;100225.53;5301766;27;20069;-88
2021/07/08 15:15:08;;;;;;;10.02;8.32;;;;;;;45.52;15.56;100223.78;5321672;27;20057;-89
2021/07/08 15:17:36;;;;;;;9.15;8.25;;;;;;;45.84;16.01;100235.28;5321604;27;20116;-89
2021/07/08 15:20:04;;;;;;;10.02;8.80;;;;;;;44.63;15.78;100229.31;5301431;27;20099;-88
2021/07/08 15:22:31;;;;;;;;;;;;;;;44.26;16.93;100223.00;5322329;27;20678;-91
2021/07/08 15:24:58;;;;;;;9.23;8.32;;;;;;;44.76;17.10;100236.59;5325330;27;19995;-89
2021/07/08 15:27:26;;;;;;;9.40;8.50;;;;;;;44.52;16.42;100230.13;5305813;27;20028;-87
2021/07/08 15:29:53;;;;;;;9.13;8.23;;;;;;;44.37;16.18;100225.84;5304670;27;20063;-90
2021/07/08 15:32:21;;;;;;;11.02;8.75;;;;;;;44.43;16.51;100215.75;5301327;27;20406;-91
2021/07/08 15:34:56;;;;;;;13.90;9.00;;;;;;;44.34;16.48;100218.03;5304330;27;20083;-92
2021/07/08 15:37:30;;;;;;;10.48;8.27;;;;;;;44.33;17.01;100213.56;5323783;27;20025;-92
2021/07/08 15:39:58;;;;;;;11.95;9.40;;;;;;;44.15;17.43;100219.09;5303682;27;20053;-90
2021/07/08 15:42:28;;;;;;;8.98;8.18;;;;;;;44.08;17.33;100212.81;5318913;27;20060;-88
2021/07/08 15:44:55;;;;;;;9.35;8.27;;;;;;;44.07;17.13;100216.69;5300903;27;20155;-92
2021/07/08 15:47:24;;;;;;;10.02;8.75;;;;;;;43.98;17.77;100217.00;5300610;27;20065;-91
2021/07/08 15:49:52;;;;;;;9.85;8.88;;;;;;;43.62;18.33;100220.59;5300233;27;20144;-92
2021/07/08 15:52:20;;;;;;;9.77;8.50;;;;;;;43.47;18.58;100218.16;5300390;27;20079;-90
2021/07/08 15:54:48;;;;;;;9.20;8.40;;;;;;;43.52;18.51;100221.09;5300984;27;20084;-91
2021/07/08 15:57:18;;;;;;;10.00;8.77;;;;;;;43.45;18.68;100211.19;5301848;27;20029;-91
2021/07/08 15:59:45;;;;;;;11.68;9.27;;;;;;;43.45;19.10;100206.50;5298052;27;20115;-89
2021/07/08 16:02:32;;;;;;;9.00;8.10;;;;;;;43.53;19.71;100208.97;5298931;27;20109;-91
2021/07/08 16:05:03;;;;;;;9.88;8.48;;;;;;;43.52;19.53;100204.50;5299331;27;20152;-91
2021/07/08 16:07:30;;;;;;;15.40;9.73;;;;;;;43.45;19.21;100203.75;5298872;27;20080;-91
2021/07/08 16:09:58;;;;;;;9.90;8.93;;;;;;;43.31;20.36;100200.28;5297419;27;20061;-91
2021/07/08 16:12:25;;;;;;;11.83;9.63;;;;;;;43.42;20.15;100198.69;5298082;27;20073;-91
2021/07/08 16:14:53;;;;;;;9.77;8.88;;;;;;;43.23;21.08;100202.47;5298361;27;20141;-91
2021/07/08 16:17:20;;;;;;;11.10;9.75;;;;;;;43.28;21.06;100203.50;5298982;27;20445;-91
2021/07/08 16:19:47;;;;;;;12.02;9.70;;;;;;;43.24;20.94;100202.28;5297715;27;20057;-91
2021/07/08 16:22:14;;;;;;;10.10;9.18;;;;;;;43.17;20.92;100200.63;5297643;27;20065;-90
2021/07/08 16:24:41;;;;;;;9.57;8.77;;;;;;;43.05;21.54;100198.56;5297113;27;20073;-91
2021/07/08 16:27:08;;;;;;;11.18;9.68;;;;;;;43.09;21.18;100190.66;5297460;27;20464;-91
2021/07/08 16:29:56;;;;;;;9.80;8.93;;;;;;;43.00;21.87;100197.56;5313771;27;20025;-91
2021/07/08 16:32:23;;;;;;;9.73;8.82;;;;;;;42.95;21.99;100203.78;5297774;27;20061;-91
2021/07/08 16:34:50;;;;;;;12.93;9.90;;;;;;;42.86;22.10;100197.69;5299765;27;20077;-91
2021/07/08 16:37:17;;;;;;;10.05;8.98;;;;;;;42.75;22.70;100205.88;5298172;27;20079;-89
2021/07/08 16:39:44;;;;;;;10.80;9.70;;;;;;;42.61;22.77;100197.63;5299627;27;20617;-91
2021/07/08 16:42:11;;;;;;;11.00;9.07;;;;;;;42.48;23.03;100202.41;5297674;27;20091;-88
2021/07/08 16:44:39;;;;;;;11.07;10.02;;;;;;;42.39;23.10;100194.41;5297665;27;20513;-89
2021/07/08 16:47:06;;;;;;;10.88;9.88;;;;;;;42.34;23.82;100193.37;5297159;27;20061;-90
2021/07/08 16:49:33;;;;;;;11.18;9.77;;;;;;;42.35;23.43;100200.59;5315718;27;20103;-90
2021/07/08 16:52:03;;;;;;;11.77;9.25;;;;;;;42.22;23.67;100198.72;5297646;27;20115;-90
2021/07/08 16:54:30;;;;;;;11.85;10.68;;;;;;;42.32;23.82;100196.34;5303621;27;20648;-90
2021/07/08 16:56:57;;;;;;;12.80;11.00;;;;;;;42.12;24.25;100199.19;5306431;27;20182;-90
2021/07/08 16:59:24;;;;;;;14.25;11.12;;;;;;;41.94;24.96;100196.31;5305269;27;20108;-90
2021/07/08 17:01:51;;;;;;;12.18;10.85;;;;;;;41.83;25.19;100191.44;5306768;27;20466;-90
2021/07/08 17:04:19;;;;;;;12.75;10.32;;;;;;;41.74;24.94;100191.72;5308773;27;20065;-90
2021/07/08 17:06:52;;;;;;;11.48;10.48;;;;;;;41.76;24.76;100199.75;5307207;27;20102;-89
2021/07/08 17:09:32;;;;;;;12.23;10.95;;;;;;;41.33;25.90;100202.19;5305752;27;20060;-90
2021/07/08 17:12:03;;;;;;;13.52;11.27;;;;;;;41.20;26.06;100195.63;5306857;27;20774;-90
2021/07/08 17:14:33;;;;;;;12.27;10.98;;;;;;;41.33;25.41;100200.31;5308782;27;20107;-90
2021/07/08 17:17:07;;;;;;;11.93;10.73;;;;;;;41.12;26.69;100204.13;5330114;27;20033;-89
2021/07/08 17:19:38;;;;;;;23.87;12.05;;;;;;;40.97;26.78;100196.06;5312411;27;20029;-90
2021/07/08 17:22:07;;;;;;;13.88;12.55;;;;;;;40.95;27.00;100206.47;5330954;27;20033;-91
2021/07/08 17:24:41;;;;;;;12.77;11.57;;;;;;;40.79;27.37;100204.13;5310904;27;20101;-91
2021/07/08 17:27:08;;;;;;;14.48;11.48;;;;;;;40.69;27.25;100207.28;5305234;27;20136;-90
2021/07/08 17:29:36;;;;;;;13.10;11.90;;;;;;;40.74;26.74;100206.66;5306068;27;20033;-90
2021/07/08 17:32:04;;;;;;;13.48;12.07;;;;;;;40.69;27.03;100204.53;5315303;27;20080;-88
2021/07/08 17:34:33;;;;;;;11.85;10.70;;;;;;;40.63;27.49;100195.22;5309708;27;20078;-90
2021/07/08 17:37:00;;;;;;;15.90;12.55;;;;;;;40.54;28.04;100196.44;5309566;27;20114;-91
2021/07/08 17:39:27;;;;;;;12.40;11.25;;;;;;;40.24;28.30;100193.22;5328537;27;20631;-90
2021/07/08 17:41:57;;;;;;;13.27;11.93;;;;;;;40.07;28.82;100189.97;5308919;27;20555;-90
2021/07/08 17:44:24;;;;;;;13.80;12.40;;;;;;;39.90;28.44;100188.63;5309207;27;20795;-90
2021/07/08 17:46:57;;;;;;;13.95;12.55;;;;;;;39.80;28.45;100188.12;5329072;27;20025;-90
2021/07/08 17:49:24;;;;;;;15.05;13.48;;;;;;;40.04;27.93;100192.28;5326765;27;20045;-90
2021/07/08 17:52:08;;;;;;;14.45;12.98;;;;;;;39.86;28.82;100188.19;5325952;27;20723;-89
2021/07/08 17:54:37;;;;;;;14.43;13.10;;;;;;;39.68;29.10;100185.09;5305829;27;20037;-89
2021/07/08 17:57:05;;;;;;;14.63;13.23;;;;;;;39.35;29.19;100185.75;5306854;27;20068;-90
2021/07/08 17:59:32;;;;;;;14.27;13.07;;;;;;;39.25;29.20;100188.00;5308092;27;20732;-90
2021/07/08 18:02:10;;;;;;;26.45;13.65;;;;;;;39.06;29.82;100187.69;5309283;27;20065;-89
2021/07/08 18:04:39;;;;;;;18.00;14.27;;;;;;;38.71;30.72;100194.09;5330243;27;20124;-89
2021/07/08 18:07:07;;;;;;;16.65;14.18;;;;;;;38.36;31.38;100191.19;5309803;27;20081;-90
2021/07/08 18:09:37;;;;;;;17.17;13.48;;;;;;;37.99;31.44;100187.62;5313598;27;20061;-89
2021/07/08 18:12:12;;;;;;;14.70;13.30;;;;;;;37.64;31.49;100181.88;5299585;27;20034;-90
2021/07/08 18:14:58;;;;;;;19.92;13.60;;;;;;;37.16;32.42;100186.84;5335321;27;20033;-89
2021/07/08 18:17:28;;;;;;;15.55;12.50;;;;;;;36.58;33.73;100185.63;5296011;27;20119;-91
2021/07/08 18:20:06;;;;;;;13.57;12.15;;;;;;;35.99;35.45;100188.84;5336078;27;20018;-92
2021/07/08 18:22:59;;;;;;;15.48;12.55;;;;;;;36.34;34.66;100178.41;5284220;27;20064;-91
2021/07/08 18:26:00;;;;;;;14.30;12.48;;;;;;;36.16;35.66;100182.28;5322819;27;20040;-91
2021/07/08 18:28:41;;;;;;;16.10;12.18;;;;;;;34.89;38.36;100169.53;5303208;27;20031;-89
2021/07/08 18:31:12;;;;;;;13.62;12.30;;;;;;;35.24;37.97;100172.91;5316037;27;20028;-91
2021/07/08 18:33:43;;;;;;;15.77;12.93;;;;;;;35.35;37.40;100177.13;5337006;27;20034;-90
2021/07/08 18:36:17;;;;;;;14.27;12.60;;;;;;;35.30;37.31;100165.87;5334584;27;20025;-91
2021/07/08 18:38:50;;;;;;;18.37;13.20;;;;;;;35.27;37.30;100172.56;5312383;27;20140;-90
2021/07/08 18:41:31;;;;;;;16.65;12.68;;;;;;;35.30;36.75;100164.00;5312623;27;20051;-90
2021/07/08 18:44:00;;;;;;;20.65;13.00;;;;;;;34.93;37.72;100170.03;5331395;27;20029;-91
2021/07/08 18:46:28;;;;;;;15.02;13.25;;;;;;;35.05;37.14;100160.47;5313353;27;20086;-91
2021/07/08 18:48:58;;;;;;;16.42;13.62;;;;;;;34.94;37.02;100175.28;5312532;27;20065;-90
2021/07/08 18:51:38;;;;;;;16.75;13.75;;;;;;;34.93;36.78;100168.12;5332100;27;20014;-89
2021/07/08 18:54:10;;;;;;;18.37;14.45;;;;;;;34.95;36.60;100168.81;5311123;27;20069;-90
2021/07/08 18:56:47;;;;;;;16.65;14.05;;;;;;;34.74;37.09;100168.47;5313282;27;20047;-91
2021/07/08 18:59:22;;;;;;;16.20;14.55;;;;;;;34.46;37.47;100171.53;5317352;27;20045;-90
2021/07/08 19:01:55;;;;;;;16.45;14.85;;;;;;;34.38;37.58;100166.91;5318077;27;20059;-89
2021/07/08 19:04:39;;;;;;;19.37;13.95;;;;;;;34.68;36.61;100169.16;5320693;27;20061;-90
2021/07/08 19:07:32;;;;;;;15.43;14.07;;;;;;;34.20;37.99;100178.97;5323009;27;20085;-90
2021/07/08 19:10:36;;;;;;;16.77;15.00;;;;;;;33.77;37.86;100181.75;5310544;27;20563;-90
2021/07/08 19:13:19;;;;;;;17.00;15.40;;;;;;;33.57;38.01;100183.00;5321562;27;20063;-90
2021/07/08 19:15:57;;;;;;;16.15;14.48;;;;;;;33.32;38.54;100182.81;5337748;27;20119;-90
2021/07/08 19:19:02;;;;;;;20.77;16.12;;;;;;;33.21;38.93;100183.97;5337952;27;20047;-90
2021/07/08 19:21:36;;;;;;;18.12;16.42;;;;;;;33.38;38.85;100182.19;5338220;27;20061;-90
2021/07/08 19:24:11;;;;;;;;;;;;;;;33.02;39.52;100187.75;5319774;27;20040;-89
2021/07/08 19:26:58;;;;;;;17.00;15.40;;;;;;;33.15;39.31;100192.78;5337037;27;19940;-90
2021/07/08 19:29:42;;;;;;;18.10;15.65;;;;;;;32.83;39.92;100182.47;5321917;27;20033;-90
2021/07/08 20:33:24;;;;;;;10.60;7.60;;;;;;;31.67;39.04;100167.78;5291794;26;20889;31
2021/07/08 20:35:52;;;;;;;13.73;8.02;;;;;;;31.67;38.54;100168.66;5338077;26;20038;-87
2021/07/08 20:38:31;;;;;;;11.45;7.90;;;;;;;32.03;37.62;100170.62;5341079;26;20032;-87
2021/07/08 20:41:29;;;;;;;12.45;8.25;;;;;;;31.94;37.91;100175.09;5322121;26;20036;-88
2021/07/08 20:44:05;;;;;;;16.30;7.75;;;;;;;31.72;38.25;100172.78;5356849;26;20028;-88
2021/07/08 20:46:44;;;;;;;10.70;7.35;;;;;;;31.38;38.85;100174.19;5321138;26;20062;-89
2021/07/08 20:49:42;;;;;;;11.00;8.05;;;;;;;31.16;39.20;100177.25;5344126;26;20037;-89
2021/07/08 20:54:53;;;;;;;14.87;6.95;;;;;;;31.20;38.62;100175.94;5312491;26;20084;-89
2021/07/08 20:57:43;;;;;;;10.35;7.32;;;;;;;31.73;37.48;100178.06;5284043;27;20029;-89
2021/07/08 21:00:35;;;;;;;9.25;7.22;;;;;;;31.20;37.94;100170.53;5299488;27;20034;-89
2021/07/08 21:03:24;;;;;;;10.65;6.60;;;;;;;31.98;36.71;100171.09;5283197;27;20033;-89
2021/07/08 21:06:00;;;;;;;10.50;7.30;;;;;;;31.96;36.35;100174.97;5282524;27;20031;-90
2021/07/08 21:08:44;;;;;;;16.10;7.40;;;;;;;31.67;36.42;100171.34;5280591;27;20039;-90
2021/07/08 21:11:55;;;;;;;12.63;6.53;;;;;;;32.10;36.09;100185.31;5299452;27;20347;-90
2021/07/08 21:14:28;;;;;;;11.77;7.28;;;;;;;32.24;35.88;100173.94;5314510;27;20601;-90
2021/07/08 21:17:05;;;;;;;11.95;7.03;;;;;;;32.04;37.18;100178.63;5297801;27;20026;-90
2021/07/08 21:20:06;;;;;;;10.13;7.20;;;;;;;32.34;37.13;100179.28;5315448;27;20022;-90
2021/07/08 21:25:54;;;;;;;12.73;6.65;;;;;;;32.27;37.93;100186.37;5264445;27;20044;-90
2021/07/08 21:34:51;;;;;;;8.23;6.95;;;;;;;31.85;38.78;100176.00;5316296;27;20071;-89
2021/07/08 21:37:37;;;;;;;12.63;6.87;;;;;;;31.15;39.38;100172.81;5314344;27;20065;-88
2021/07/08 21:41:11;;;;;;;13.32;6.90;;;;;;;31.40;39.63;100179.50;5301026;27;20139;-89
2021/07/08 21:44:21;;;;;;;11.40;7.20;;;;;;;31.19;40.19;100180.53;5312912;27;20072;-89
2021/07/08 21:47:10;;;;;;;15.02;7.45;;;;;;;31.13;40.78;100182.97;5301639;27;20083;-90
2021/07/08 21:50:57;;;;;;;10.68;6.72;;;;;;;31.15;40.76;100178.25;5256855;27;20048;-89
2021/07/08 21:54:25;;;;;;;10.35;7.22;;;;;;;31.30;40.39;100181.38;5254917;27;20096;-89
2021/07/08 21:57:22;;;;;;;13.40;8.20;;;;;;;30.59;41.19;100187.16;5272866;27;20026;-89
2021/07/08 22:01:19;;;;;;;12.15;7.07;;;;;;;31.02;40.81;100189.41;5257825;27;20069;-89
